sensor_id;sensor_type;location;lat;lon;timestamp;temperature;humidity
20125;DHT22;10223;50.862;4.360;2023-09-08T00:00:06;26.70;99.90
20125;DHT22;10223;50.862;4.360;2023-09-08T00:02:34;26.60;99.90
20125;DHT22;10223;50.862;4.360;2023-09-08T00:05:01;26.60;99.90
20125;DHT22;10223;50.862;4.360;2023-09-08T00:07:28;26.40;99.90
20125;DHT22;10223;50.862;4.360;2023-09-08T00:09:55;26.40;99.90
20125;DHT22;10223;50.862;4.360;2023-09-08T00:12:23;26.30;99.90
20125;DHT22;10223;50.862;4.360;2023-09-08T00:14:50;26.20;99.90
20125;DHT22;10223;50.862;4.360;2023-09-08T00:17:17;26.00;99.90
20125;DHT22;10223;50.862;4.360;2023-09-08T00:19:44;25.60;99.90
20125;DHT22;10223;50.862;4.360;2023-09-08T00:22:10;25.70;99.90
20125;DHT22;10223;50.862;4.360;2023-09-08T00:24:37;25.40;99.90
20125;DHT22;10223;50.862;4.360;2023-09-08T00:27:04;25.20;99.90
20125;DHT22;10223;50.862;4.360;2023-09-08T00:29:32;25.20;99.90
20125;DHT22;10223;50.862;4.360;2023-09-08T00:31:59;25.00;99.90
20125;DHT22;10223;50.862;4.360;2023-09-08T00:34:29;25.10;99.90
20125;DHT22;10223;50.862;4.360;2023-09-08T00:36:55;25.20;99.90
20125;DHT22;10223;50.862;4.360;2023-09-08T00:39:22;25.20;99.90
20125;DHT22;10223;50.862;4.360;2023-09-08T00:41:48;25.20;99.90
20125;DHT22;10223;50.862;4.360;2023-09-08T00:44:15;25.40;99.90
20125;DHT22;10223;50.862;4.360;2023-09-08T00:46:44;25.70;99.90
20125;DHT22;10223;50.862;4.360;2023-09-08T00:49:11;25.90;99.90
20125;DHT22;10223;50.862;4.360;2023-09-08T00:51:38;26.00;99.90
20125;DHT22;10223;50.862;4.360;2023-09-08T00:54:06;26.00;99.90
20125;DHT22;10223;50.862;4.360;2023-09-08T00:56:33;25.80;99.90
20125;DHT22;10223;50.862;4.360;2023-09-08T00:59:00;25.80;99.90
20125;DHT22;10223;50.862;4.360;2023-09-08T01:01:28;25.70;99.90
20125;DHT22;10223;50.862;4.360;2023-09-08T01:03:56;25.70;99.90
20125;DHT22;10223;50.862;4.360;2023-09-08T01:06:23;25.70;99.90
20125;DHT22;10223;50.862;4.360;2023-09-08T01:08:50;25.70;99.90
20125;DHT22;10223;50.862;4.360;2023-09-08T01:11:19;25.60;99.90
20125;DHT22;10223;50.862;4.360;2023-09-08T01:13:46;25.60;99.90
20125;DHT22;10223;50.862;4.360;2023-09-08T01:16:13;25.70;99.90
20125;DHT22;10223;50.862;4.360;2023-09-08T01:18:40;25.60;99.90
20125;DHT22;10223;50.862;4.360;2023-09-08T01:24:17;25.70;99.90
20125;DHT22;10223;50.862;4.360;2023-09-08T01:26:48;25.60;99.90
20125;DHT22;10223;50.862;4.360;2023-09-08T01:29:16;25.50;99.90
20125;DHT22;10223;50.862;4.360;2023-09-08T01:31:44;25.50;99.90
20125;DHT22;10223;50.862;4.360;2023-09-08T01:34:12;25.40;99.90
20125;DHT22;10223;50.862;4.360;2023-09-08T01:36:39;25.60;99.90
20125;DHT22;10223;50.862;4.360;2023-09-08T01:39:06;25.10;99.90
20125;DHT22;10223;50.862;4.360;2023-09-08T01:41:32;24.90;99.90
20125;DHT22;10223;50.862;4.360;2023-09-08T01:44:01;25.00;99.90
20125;DHT22;10223;50.862;4.360;2023-09-08T01:46:33;25.00;99.90
20125;DHT22;10223;50.862;4.360;2023-09-08T01:49:00;25.10;99.90
20125;DHT22;10223;50.862;4.360;2023-09-08T01:51:26;25.20;99.90
20125;DHT22;10223;50.862;4.360;2023-09-08T01:53:53;25.20;99.90
20125;DHT22;10223;50.862;4.360;2023-09-08T01:56:20;25.20;99.90
20125;DHT22;10223;50.862;4.360;2023-09-08T01:58:48;25.20;99.90
20125;DHT22;10223;50.862;4.360;2023-09-08T02:01:16;25.00;99.90
20125;DHT22;10223;50.862;4.360;2023-09-08T02:03:43;24.70;99.90
20125;DHT22;10223;50.862;4.360;2023-09-08T02:06:10;24.60;99.90
20125;DHT22;10223;50.862;4.360;2023-09-08T02:08:36;24.70;99.90
20125;DHT22;10223;50.862;4.360;2023-09-08T02:11:03;24.60;99.90
20125;DHT22;10223;50.862;4.360;2023-09-08T02:13:30;24.60;99.90
20125;DHT22;10223;50.862;4.360;2023-09-08T02:15:57;24.80;99.90
20125;DHT22;10223;50.862;4.360;2023-09-08T02:18:25;24.90;99.90
20125;DHT22;10223;50.862;4.360;2023-09-08T02:20:53;25.10;99.90
20125;DHT22;10223;50.862;4.360;2023-09-08T02:23:20;25.20;99.90
20125;DHT22;10223;50.862;4.360;2023-09-08T02:25:47;25.00;99.90
20125;DHT22;10223;50.862;4.360;2023-09-08T02:28:14;25.00;99.90
20125;DHT22;10223;50.862;4.360;2023-09-08T02:30:40;25.00;99.90
20125;DHT22;10223;50.862;4.360;2023-09-08T02:33:07;25.00;99.90
20125;DHT22;10223;50.862;4.360;2023-09-08T02:35:37;24.80;99.90
20125;DHT22;10223;50.862;4.360;2023-09-08T02:38:04;24.60;99.90
20125;DHT22;10223;50.862;4.360;2023-09-08T02:40:31;24.60;99.90
20125;DHT22;10223;50.862;4.360;2023-09-08T02:43:00;24.50;99.90
20125;DHT22;10223;50.862;4.360;2023-09-08T02:45:27;24.40;99.90
20125;DHT22;10223;50.862;4.360;2023-09-08T02:47:54;24.30;99.90
20125;DHT22;10223;50.862;4.360;2023-09-08T02:50:21;24.40;99.90
20125;DHT22;10223;50.862;4.360;2023-09-08T02:52:49;24.40;99.90
20125;DHT22;10223;50.862;4.360;2023-09-08T02:55:16;24.40;99.90
20125;DHT22;10223;50.862;4.360;2023-09-08T02:57:43;24.40;99.90
20125;DHT22;10223;50.862;4.360;2023-09-08T03:00:11;24.20;99.90
20125;DHT22;10223;50.862;4.360;2023-09-08T03:02:38;24.20;99.90
20125;DHT22;10223;50.862;4.360;2023-09-08T03:05:05;24.20;99.90
20125;DHT22;10223;50.862;4.360;2023-09-08T03:07:32;24.30;99.90
20125;DHT22;10223;50.862;4.360;2023-09-08T03:10:05;24.30;99.90
20125;DHT22;10223;50.862;4.360;2023-09-08T03:12:32;24.20;99.90
20125;DHT22;10223;50.862;4.360;2023-09-08T03:15:00;24.30;99.90
20125;DHT22;10223;50.862;4.360;2023-09-08T03:17:27;24.40;99.90
20125;DHT22;10223;50.862;4.360;2023-09-08T03:19:54;24.40;99.90
20125;DHT22;10223;50.862;4.360;2023-09-08T03:22:21;24.40;99.90
20125;DHT22;10223;50.862;4.360;2023-09-08T03:24:47;24.30;99.90
20125;DHT22;10223;50.862;4.360;2023-09-08T03:27:16;24.40;99.90
20125;DHT22;10223;50.862;4.360;2023-09-08T03:29:42;24.30;99.90
20125;DHT22;10223;50.862;4.360;2023-09-08T03:32:09;24.30;99.90
20125;DHT22;10223;50.862;4.360;2023-09-08T03:34:36;24.40;99.90
20125;DHT22;10223;50.862;4.360;2023-09-08T03:37:05;24.20;99.90
20125;DHT22;10223;50.862;4.360;2023-09-08T03:39:31;24.40;99.90
20125;DHT22;10223;50.862;4.360;2023-09-08T03:41:58;24.40;99.90
20125;DHT22;10223;50.862;4.360;2023-09-08T03:44:26;24.30;99.90
20125;DHT22;10223;50.862;4.360;2023-09-08T03:46:53;24.40;99.90
20125;DHT22;10223;50.862;4.360;2023-09-08T03:49:20;24.40;99.90
20125;DHT22;10223;50.862;4.360;2023-09-08T03:51:47;24.20;99.90
20125;DHT22;10223;50.862;4.360;2023-09-08T03:54:14;24.20;99.90
20125;DHT22;10223;50.862;4.360;2023-09-08T03:56:41;24.30;99.90
20125;DHT22;10223;50.862;4.360;2023-09-08T03:59:07;24.20;99.90
20125;DHT22;10223;50.862;4.360;2023-09-08T04:01:36;24.20;99.90
20125;DHT22;10223;50.862;4.360;2023-09-08T04:04:03;24.20;99.90
20125;DHT22;10223;50.862;4.360;2023-09-08T04:06:30;24.10;99.90
20125;DHT22;10223;50.862;4.360;2023-09-08T04:08:56;24.20;99.90
20125;DHT22;10223;50.862;4.360;2023-09-08T04:11:23;24.20;99.90
20125;DHT22;10223;50.862;4.360;2023-09-08T04:13:51;24.10;99.90
20125;DHT22;10223;50.862;4.360;2023-09-08T04:16:18;24.10;99.90
20125;DHT22;10223;50.862;4.360;2023-09-08T04:18:46;24.20;99.90
20125;DHT22;10223;50.862;4.360;2023-09-08T04:21:13;24.10;99.90
20125;DHT22;10223;50.862;4.360;2023-09-08T04:23:40;24.10;99.90
20125;DHT22;10223;50.862;4.360;2023-09-08T04:26:07;24.10;99.90
20125;DHT22;10223;50.862;4.360;2023-09-08T04:28:33;23.90;99.90
20125;DHT22;10223;50.862;4.360;2023-09-08T04:31:00;23.90;99.90
20125;DHT22;10223;50.862;4.360;2023-09-08T04:33:27;23.90;99.90
20125;DHT22;10223;50.862;4.360;2023-09-08T04:35:56;24.00;99.90
20125;DHT22;10223;50.862;4.360;2023-09-08T04:38:23;24.00;99.90
20125;DHT22;10223;50.862;4.360;2023-09-08T04:40:49;24.10;99.90
20125;DHT22;10223;50.862;4.360;2023-09-08T04:43:16;24.20;99.90
20125;DHT22;10223;50.862;4.360;2023-09-08T04:45:43;24.30;99.90
20125;DHT22;10223;50.862;4.360;2023-09-08T04:48:10;24.10;99.90
20125;DHT22;10223;50.862;4.360;2023-09-08T04:50:36;24.00;99.90
20125;DHT22;10223;50.862;4.360;2023-09-08T04:53:05;23.90;99.90
20125;DHT22;10223;50.862;4.360;2023-09-08T04:55:31;23.90;99.90
20125;DHT22;10223;50.862;4.360;2023-09-08T04:57:58;23.90;99.90
20125;DHT22;10223;50.862;4.360;2023-09-08T05:00:25;23.90;99.90
20125;DHT22;10223;50.862;4.360;2023-09-08T05:02:52;23.90;99.90
20125;DHT22;10223;50.862;4.360;2023-09-08T05:05:19;23.80;99.90
20125;DHT22;10223;50.862;4.360;2023-09-08T05:07:45;23.70;99.90
20125;DHT22;10223;50.862;4.360;2023-09-08T05:10:15;23.80;99.90
20125;DHT22;10223;50.862;4.360;2023-09-08T05:12:41;23.80;99.90
20125;DHT22;10223;50.862;4.360;2023-09-08T05:15:09;23.90;99.90
20125;DHT22;10223;50.862;4.360;2023-09-08T05:17:40;23.90;99.90
20125;DHT22;10223;50.862;4.360;2023-09-08T05:20:07;23.90;99.90
20125;DHT22;10223;50.862;4.360;2023-09-08T05:22:35;23.90;99.90
20125;DHT22;10223;50.862;4.360;2023-09-08T05:25:02;23.90;99.90
20125;DHT22;10223;50.862;4.360;2023-09-08T05:27:30;24.00;99.90
20125;DHT22;10223;50.862;4.360;2023-09-08T05:29:57;24.10;99.90
20125;DHT22;10223;50.862;4.360;2023-09-08T05:32:25;23.90;99.90
20125;DHT22;10223;50.862;4.360;2023-09-08T05:34:51;23.90;99.90
20125;DHT22;10223;50.862;4.360;2023-09-08T05:37:18;23.90;99.90
20125;DHT22;10223;50.862;4.360;2023-09-08T05:39:45;23.90;99.90
20125;DHT22;10223;50.862;4.360;2023-09-08T05:42:12;23.90;99.90
20125;DHT22;10223;50.862;4.360;2023-09-08T05:44:40;23.90;99.90
20125;DHT22;10223;50.862;4.360;2023-09-08T05:47:07;24.10;99.90
20125;DHT22;10223;50.862;4.360;2023-09-08T05:49:34;24.20;99.90
20125;DHT22;10223;50.862;4.360;2023-09-08T05:52:00;23.90;99.90
20125;DHT22;10223;50.862;4.360;2023-09-08T05:54:27;23.80;99.90
20125;DHT22;10223;50.862;4.360;2023-09-08T05:56:55;23.60;99.90
20125;DHT22;10223;50.862;4.360;2023-09-08T05:59:22;23.60;99.90
20125;DHT22;10223;50.862;4.360;2023-09-08T06:01:50;23.80;99.90
20125;DHT22;10223;50.862;4.360;2023-09-08T06:04:17;23.90;99.90
20125;DHT22;10223;50.862;4.360;2023-09-08T06:06:44;23.90;99.90
20125;DHT22;10223;50.862;4.360;2023-09-08T06:09:11;24.00;99.90
20125;DHT22;10223;50.862;4.360;2023-09-08T06:11:40;23.90;99.90
20125;DHT22;10223;50.862;4.360;2023-09-08T06:14:07;23.90;99.90
20125;DHT22;10223;50.862;4.360;2023-09-08T06:16:33;23.90;99.90
20125;DHT22;10223;50.862;4.360;2023-09-08T06:19:02;23.70;99.90
20125;DHT22;10223;50.862;4.360;2023-09-08T06:21:29;23.60;99.90
20125;DHT22;10223;50.862;4.360;2023-09-08T06:23:56;23.60;99.90
20125;DHT22;10223;50.862;4.360;2023-09-08T06:26:23;23.60;99.90
20125;DHT22;10223;50.862;4.360;2023-09-08T06:28:50;23.60;99.90
20125;DHT22;10223;50.862;4.360;2023-09-08T06:31:17;23.20;99.90
20125;DHT22;10223;50.862;4.360;2023-09-08T06:33:44;23.20;99.90
20125;DHT22;10223;50.862;4.360;2023-09-08T06:36:12;23.30;99.90
20125;DHT22;10223;50.862;4.360;2023-09-08T06:38:39;23.60;99.90
20125;DHT22;10223;50.862;4.360;2023-09-08T06:41:09;23.70;99.90
20125;DHT22;10223;50.862;4.360;2023-09-08T06:43:36;23.50;99.90
20125;DHT22;10223;50.862;4.360;2023-09-08T06:46:03;23.60;99.90
20125;DHT22;10223;50.862;4.360;2023-09-08T06:48:30;23.60;99.90
20125;DHT22;10223;50.862;4.360;2023-09-08T06:50:57;23.60;99.90
20125;DHT22;10223;50.862;4.360;2023-09-08T06:53:25;23.60;99.90
20125;DHT22;10223;50.862;4.360;2023-09-08T06:55:52;23.80;99.90
20125;DHT22;10223;50.862;4.360;2023-09-08T06:58:19;23.80;99.90
20125;DHT22;10223;50.862;4.360;2023-09-08T07:00:46;24.10;99.90
20125;DHT22;10223;50.862;4.360;2023-09-08T07:03:15;24.80;99.90
20125;DHT22;10223;50.862;4.360;2023-09-08T07:05:41;25.70;99.90
20125;DHT22;10223;50.862;4.360;2023-09-08T07:08:08;26.30;99.90
20125;DHT22;10223;50.862;4.360;2023-09-08T07:10:36;26.40;99.90
20125;DHT22;10223;50.862;4.360;2023-09-08T07:13:03;26.80;99.90
20125;DHT22;10223;50.862;4.360;2023-09-08T07:15:30;27.20;99.90
20125;DHT22;10223;50.862;4.360;2023-09-08T07:17:57;27.60;99.90
20125;DHT22;10223;50.862;4.360;2023-09-08T07:20:24;27.70;99.90
20125;DHT22;10223;50.862;4.360;2023-09-08T07:22:51;27.70;99.90
20125;DHT22;10223;50.862;4.360;2023-09-08T07:25:17;27.70;99.90
20125;DHT22;10223;50.862;4.360;2023-09-08T07:27:46;28.20;99.90
20125;DHT22;10223;50.862;4.360;2023-09-08T07:30:13;28.40;99.90
20125;DHT22;10223;50.862;4.360;2023-09-08T07:32:40;28.40;99.90
20125;DHT22;10223;50.862;4.360;2023-09-08T07:35:07;28.40;99.90
20125;DHT22;10223;50.862;4.360;2023-09-08T07:37:39;28.60;99.90
20125;DHT22;10223;50.862;4.360;2023-09-08T07:40:07;28.60;99.90
20125;DHT22;10223;50.862;4.360;2023-09-08T07:42:34;28.20;99.90
20125;DHT22;10223;50.862;4.360;2023-09-08T07:45:03;28.70;99.90
20125;DHT22;10223;50.862;4.360;2023-09-08T07:47:29;28.70;99.90
20125;DHT22;10223;50.862;4.360;2023-09-08T07:50:18;29.40;99.90
20125;DHT22;10223;50.862;4.360;2023-09-08T07:52:46;29.80;99.90
20125;DHT22;10223;50.862;4.360;2023-09-08T07:55:12;30.30;99.90
20125;DHT22;10223;50.862;4.360;2023-09-08T07:57:40;30.50;99.90
20125;DHT22;10223;50.862;4.360;2023-09-08T08:00:10;30.30;99.90
20125;DHT22;10223;50.862;4.360;2023-09-08T08:02:37;30.60;99.90
20125;DHT22;10223;50.862;4.360;2023-09-08T08:05:05;30.30;99.90
20125;DHT22;10223;50.862;4.360;2023-09-08T08:07:32;30.00;99.90
20125;DHT22;10223;50.862;4.360;2023-09-08T08:09:59;30.00;99.90
20125;DHT22;10223;50.862;4.360;2023-09-08T08:12:26;29.80;99.90
20125;DHT22;10223;50.862;4.360;2023-09-08T08:14:53;30.10;99.90
20125;DHT22;10223;50.862;4.360;2023-09-08T08:17:21;29.50;99.90
20125;DHT22;10223;50.862;4.360;2023-09-08T08:19:48;29.50;99.90
20125;DHT22;10223;50.862;4.360;2023-09-08T08:22:15;29.10;99.90
20125;DHT22;10223;50.862;4.360;2023-09-08T08:24:42;29.40;99.90
20125;DHT22;10223;50.862;4.360;2023-09-08T08:27:09;29.60;99.90
20125;DHT22;10223;50.862;4.360;2023-09-08T08:29:35;29.20;99.90
20125;DHT22;10223;50.862;4.360;2023-09-08T08:32:02;29.90;99.90
20125;DHT22;10223;50.862;4.360;2023-09-08T08:34:31;29.90;99.90
20125;DHT22;10223;50.862;4.360;2023-09-08T08:36:58;30.10;99.90
20125;DHT22;10223;50.862;4.360;2023-09-08T08:39:24;30.10;99.90
20125;DHT22;10223;50.862;4.360;2023-09-08T08:41:51;30.30;99.90
20125;DHT22;10223;50.862;4.360;2023-09-08T08:44:19;30.10;99.90
20125;DHT22;10223;50.862;4.360;2023-09-08T08:46:47;30.60;99.90
20125;DHT22;10223;50.862;4.360;2023-09-08T08:49:15;30.80;99.90
20125;DHT22;10223;50.862;4.360;2023-09-08T08:51:44;30.60;99.90
20125;DHT22;10223;50.862;4.360;2023-09-08T08:54:12;30.60;99.90
20125;DHT22;10223;50.862;4.360;2023-09-08T08:56:40;30.50;99.90
20125;DHT22;10223;50.862;4.360;2023-09-08T08:59:07;30.80;99.90
20125;DHT22;10223;50.862;4.360;2023-09-08T09:01:36;31.30;99.90
20125;DHT22;10223;50.862;4.360;2023-09-08T09:04:05;31.40;99.90
20125;DHT22;10223;50.862;4.360;2023-09-08T09:06:32;30.90;99.90
20125;DHT22;10223;50.862;4.360;2023-09-08T09:09:01;31.10;99.90
20125;DHT22;10223;50.862;4.360;2023-09-08T09:11:28;31.30;99.90
20125;DHT22;10223;50.862;4.360;2023-09-08T09:13:56;31.10;99.90
20125;DHT22;10223;50.862;4.360;2023-09-08T09:16:23;31.60;99.90
20125;DHT22;10223;50.862;4.360;2023-09-08T09:18:54;32.10;99.90
20125;DHT22;10223;50.862;4.360;2023-09-08T09:21:21;32.40;99.90
20125;DHT22;10223;50.862;4.360;2023-09-08T09:23:48;32.10;99.90
20125;DHT22;10223;50.862;4.360;2023-09-08T09:26:25;32.50;99.90
20125;DHT22;10223;50.862;4.360;2023-09-08T09:28:52;33.20;99.90
20125;DHT22;10223;50.862;4.360;2023-09-08T09:31:23;32.60;99.90
20125;DHT22;10223;50.862;4.360;2023-09-08T09:34:02;32.30;99.90
20125;DHT22;10223;50.862;4.360;2023-09-08T09:36:30;31.90;99.90
20125;DHT22;10223;50.862;4.360;2023-09-08T09:38:58;32.10;99.90
20125;DHT22;10223;50.862;4.360;2023-09-08T09:41:28;32.60;99.90
20125;DHT22;10223;50.862;4.360;2023-09-08T09:43:56;32.70;99.90
20125;DHT22;10223;50.862;4.360;2023-09-08T09:46:23;33.30;99.90
20125;DHT22;10223;50.862;4.360;2023-09-08T09:48:51;33.40;99.90
20125;DHT22;10223;50.862;4.360;2023-09-08T09:51:19;33.90;99.90
20125;DHT22;10223;50.862;4.360;2023-09-08T09:53:46;33.90;99.90
20125;DHT22;10223;50.862;4.360;2023-09-08T09:56:15;33.60;99.90
20125;DHT22;10223;50.862;4.360;2023-09-08T09:58:44;33.90;99.90
20125;DHT22;10223;50.862;4.360;2023-09-08T10:01:11;34.40;99.90
20125;DHT22;10223;50.862;4.360;2023-09-08T10:03:39;35.00;99.90
20125;DHT22;10223;50.862;4.360;2023-09-08T10:06:06;35.50;99.90
20125;DHT22;10223;50.862;4.360;2023-09-08T10:08:34;35.90;99.90
20125;DHT22;10223;50.862;4.360;2023-09-08T10:11:06;36.60;99.90
20125;DHT22;10223;50.862;4.360;2023-09-08T10:13:38;35.80;99.90
20125;DHT22;10223;50.862;4.360;2023-09-08T10:16:08;35.60;99.90
20125;DHT22;10223;50.862;4.360;2023-09-08T10:18:35;36.00;99.90
20125;DHT22;10223;50.862;4.360;2023-09-08T10:21:04;36.40;99.90
20125;DHT22;10223;50.862;4.360;2023-09-08T10:23:35;36.40;99.90
20125;DHT22;10223;50.862;4.360;2023-09-08T10:26:06;36.10;99.90
20125;DHT22;10223;50.862;4.360;2023-09-08T10:28:36;36.30;99.90
20125;DHT22;10223;50.862;4.360;2023-09-08T10:31:03;36.20;99.90
20125;DHT22;10223;50.862;4.360;2023-09-08T10:33:33;36.30;99.90
20125;DHT22;10223;50.862;4.360;2023-09-08T10:36:02;36.50;99.90
20125;DHT22;10223;50.862;4.360;2023-09-08T10:38:32;36.60;99.90
20125;DHT22;10223;50.862;4.360;2023-09-08T10:41:27;36.70;99.90
20125;DHT22;10223;50.862;4.360;2023-09-08T10:43:58;36.80;99.90
20125;DHT22;10223;50.862;4.360;2023-09-08T10:46:27;36.30;99.90
20125;DHT22;10223;50.862;4.360;2023-09-08T10:49:01;36.30;99.90
20125;DHT22;10223;50.862;4.360;2023-09-08T10:51:29;36.50;99.90
20125;DHT22;10223;50.862;4.360;2023-09-08T10:53:56;36.30;99.90
20125;DHT22;10223;50.862;4.360;2023-09-08T10:56:27;36.20;99.90
20125;DHT22;10223;50.862;4.360;2023-09-08T10:58:54;35.80;99.60
20125;DHT22;10223;50.862;4.360;2023-09-08T11:01:21;36.00;98.80
20125;DHT22;10223;50.862;4.360;2023-09-08T11:03:52;35.90;98.30
20125;DHT22;10223;50.862;4.360;2023-09-08T11:06:21;36.00;98.20
20125;DHT22;10223;50.862;4.360;2023-09-08T11:08:49;36.20;97.90
20125;DHT22;10223;50.862;4.360;2023-09-08T11:11:18;36.70;98.10
20125;DHT22;10223;50.862;4.360;2023-09-08T11:13:45;36.70;98.00
20125;DHT22;10223;50.862;4.360;2023-09-08T11:16:13;36.90;97.40
20125;DHT22;10223;50.862;4.360;2023-09-08T11:18:41;36.70;96.10
20125;DHT22;10223;50.862;4.360;2023-09-08T11:21:09;36.60;94.90
20125;DHT22;10223;50.862;4.360;2023-09-08T11:23:38;36.60;94.90
20125;DHT22;10223;50.862;4.360;2023-09-08T11:26:06;35.90;96.80
20125;DHT22;10223;50.862;4.360;2023-09-08T11:28:34;35.80;96.50
20125;DHT22;10223;50.862;4.360;2023-09-08T11:31:01;35.80;96.80
20125;DHT22;10223;50.862;4.360;2023-09-08T11:33:33;35.90;96.10
20125;DHT22;10223;50.862;4.360;2023-09-08T11:36:11;36.00;96.00
20125;DHT22;10223;50.862;4.360;2023-09-08T11:38:42;36.30;96.40
20125;DHT22;10223;50.862;4.360;2023-09-08T11:41:10;36.40;96.10
20125;DHT22;10223;50.862;4.360;2023-09-08T11:43:37;36.00;96.80
20125;DHT22;10223;50.862;4.360;2023-09-08T11:46:03;35.10;97.10
20125;DHT22;10223;50.862;4.360;2023-09-08T11:48:31;34.00;98.90
20125;DHT22;10223;50.862;4.360;2023-09-08T11:50:58;33.60;97.80
20125;DHT22;10223;50.862;4.360;2023-09-08T11:53:25;32.90;99.40
20125;DHT22;10223;50.862;4.360;2023-09-08T11:55:54;33.30;99.10
20125;DHT22;10223;50.862;4.360;2023-09-08T11:58:21;33.20;99.80
20125;DHT22;10223;50.862;4.360;2023-09-08T12:00:48;33.80;99.90
20125;DHT22;10223;50.862;4.360;2023-09-08T12:03:17;33.40;99.60
20125;DHT22;10223;50.862;4.360;2023-09-08T12:05:44;33.50;99.90
20125;DHT22;10223;50.862;4.360;2023-09-08T12:08:12;32.80;99.90
20125;DHT22;10223;50.862;4.360;2023-09-08T12:10:40;32.50;99.90
20125;DHT22;10223;50.862;4.360;2023-09-08T12:13:08;33.20;99.90
20125;DHT22;10223;50.862;4.360;2023-09-08T12:15:36;33.60;99.40
20125;DHT22;10223;50.862;4.360;2023-09-08T12:18:05;33.80;99.90
20125;DHT22;10223;50.862;4.360;2023-09-08T12:20:33;33.80;99.90
20125;DHT22;10223;50.862;4.360;2023-09-08T12:23:01;33.90;99.90
20125;DHT22;10223;50.862;4.360;2023-09-08T12:25:29;34.00;99.80
20125;DHT22;10223;50.862;4.360;2023-09-08T12:27:57;33.60;99.90
20125;DHT22;10223;50.862;4.360;2023-09-08T12:30:26;33.60;99.90
20125;DHT22;10223;50.862;4.360;2023-09-08T12:32:56;33.80;99.90
20125;DHT22;10223;50.862;4.360;2023-09-08T12:35:24;34.20;99.90
20125;DHT22;10223;50.862;4.360;2023-09-08T12:37:57;34.60;99.90
20125;DHT22;10223;50.862;4.360;2023-09-08T12:40:25;35.10;99.50
20125;DHT22;10223;50.862;4.360;2023-09-08T12:42:52;35.30;99.20
20125;DHT22;10223;50.862;4.360;2023-09-08T12:45:20;35.20;99.00
20125;DHT22;10223;50.862;4.360;2023-09-08T12:47:49;35.30;99.50
20125;DHT22;10223;50.862;4.360;2023-09-08T12:50:16;35.00;99.90
20125;DHT22;10223;50.862;4.360;2023-09-08T12:52:43;35.60;99.50
20125;DHT22;10223;50.862;4.360;2023-09-08T12:55:10;36.10;99.00
20125;DHT22;10223;50.862;4.360;2023-09-08T12:57:37;36.30;98.80
20125;DHT22;10223;50.862;4.360;2023-09-08T13:00:05;36.40;98.60
20125;DHT22;10223;50.862;4.360;2023-09-08T13:02:32;35.60;99.40
20125;DHT22;10223;50.862;4.360;2023-09-08T13:05:01;35.30;99.90
20125;DHT22;10223;50.862;4.360;2023-09-08T13:07:28;35.60;99.80
20125;DHT22;10223;50.862;4.360;2023-09-08T13:09:55;36.20;99.50
20125;DHT22;10223;50.862;4.360;2023-09-08T13:12:22;36.70;98.70
20125;DHT22;10223;50.862;4.360;2023-09-08T13:14:49;36.90;98.00
20125;DHT22;10223;50.862;4.360;2023-09-08T13:17:15;37.30;97.60
20125;DHT22;10223;50.862;4.360;2023-09-08T13:19:44;37.10;98.20
20125;DHT22;10223;50.862;4.360;2023-09-08T13:22:12;38.20;97.10
20125;DHT22;10223;50.862;4.360;2023-09-08T13:24:39;39.40;95.20
20125;DHT22;10223;50.862;4.360;2023-09-08T13:27:06;40.30;94.10
20125;DHT22;10223;50.862;4.360;2023-09-08T13:29:33;40.70;93.30
20125;DHT22;10223;50.862;4.360;2023-09-08T13:32:01;40.50;93.30
20125;DHT22;10223;50.862;4.360;2023-09-08T13:34:28;41.10;92.30
20125;DHT22;10223;50.862;4.360;2023-09-08T13:36:54;40.30;91.90
20125;DHT22;10223;50.862;4.360;2023-09-08T13:39:22;41.00;92.20
20125;DHT22;10223;50.862;4.360;2023-09-08T13:41:50;42.20;90.60
20125;DHT22;10223;50.862;4.360;2023-09-08T13:44:19;42.30;90.00
20125;DHT22;10223;50.862;4.360;2023-09-08T13:46:46;41.50;89.40
20125;DHT22;10223;50.862;4.360;2023-09-08T13:49:13;40.10;90.80
20125;DHT22;10223;50.862;4.360;2023-09-08T13:51:40;40.80;90.50
20125;DHT22;10223;50.862;4.360;2023-09-08T13:54:07;41.00;89.40
20125;DHT22;10223;50.862;4.360;2023-09-08T13:56:38;41.10;90.00
20125;DHT22;10223;50.862;4.360;2023-09-08T13:59:05;41.00;88.20
20125;DHT22;10223;50.862;4.360;2023-09-08T14:01:33;39.10;90.80
20125;DHT22;10223;50.862;4.360;2023-09-08T14:04:00;39.80;91.00
20125;DHT22;10223;50.862;4.360;2023-09-08T14:06:28;41.70;88.70
20125;DHT22;10223;50.862;4.360;2023-09-08T14:08:55;41.50;88.10
20125;DHT22;10223;50.862;4.360;2023-09-08T14:11:22;41.50;88.10
20125;DHT22;10223;50.862;4.360;2023-09-08T14:13:50;41.00;87.20
20125;DHT22;10223;50.862;4.360;2023-09-08T14:16:18;41.80;87.00
20125;DHT22;10223;50.862;4.360;2023-09-08T14:18:45;41.30;86.80
20125;DHT22;10223;50.862;4.360;2023-09-08T14:21:12;41.20;86.70
20125;DHT22;10223;50.862;4.360;2023-09-08T14:23:39;40.80;87.70
20125;DHT22;10223;50.862;4.360;2023-09-08T14:26:06;42.20;86.50
20125;DHT22;10223;50.862;4.360;2023-09-08T14:28:33;43.20;83.70
20125;DHT22;10223;50.862;4.360;2023-09-08T14:31:01;43.40;82.40
20125;DHT22;10223;50.862;4.360;2023-09-08T14:33:28;43.10;82.20
20125;DHT22;10223;50.862;4.360;2023-09-08T14:35:55;41.30;84.90
20125;DHT22;10223;50.862;4.360;2023-09-08T14:38:22;41.50;85.30
20125;DHT22;10223;50.862;4.360;2023-09-08T14:40:56;41.80;83.80
20125;DHT22;10223;50.862;4.360;2023-09-08T14:43:24;41.20;85.00
20125;DHT22;10223;50.862;4.360;2023-09-08T14:45:51;41.40;84.80
20125;DHT22;10223;50.862;4.360;2023-09-08T14:48:19;41.60;84.80
20125;DHT22;10223;50.862;4.360;2023-09-08T14:50:46;41.40;84.50
20125;DHT22;10223;50.862;4.360;2023-09-08T14:53:13;41.20;85.70
20125;DHT22;10223;50.862;4.360;2023-09-08T14:55:40;40.40;86.90
20125;DHT22;10223;50.862;4.360;2023-09-08T14:58:09;40.50;87.60
20125;DHT22;10223;50.862;4.360;2023-09-08T15:00:37;40.00;88.00
20125;DHT22;10223;50.862;4.360;2023-09-08T15:03:04;39.10;89.50
20125;DHT22;10223;50.862;4.360;2023-09-08T15:05:33;39.60;89.40
20125;DHT22;10223;50.862;4.360;2023-09-08T15:08:00;40.60;87.70
20125;DHT22;10223;50.862;4.360;2023-09-08T15:10:27;40.30;88.10
20125;DHT22;10223;50.862;4.360;2023-09-08T15:12:54;40.80;87.30
20125;DHT22;10223;50.862;4.360;2023-09-08T15:15:20;40.00;88.60
20125;DHT22;10223;50.862;4.360;2023-09-08T15:17:50;39.70;89.20
20125;DHT22;10223;50.862;4.360;2023-09-08T15:20:17;39.30;90.00
20125;DHT22;10223;50.862;4.360;2023-09-08T15:22:45;39.10;90.20
20125;DHT22;10223;50.862;4.360;2023-09-08T15:25:12;39.60;89.50
20125;DHT22;10223;50.862;4.360;2023-09-08T15:27:39;39.20;89.70
20125;DHT22;10223;50.862;4.360;2023-09-08T15:30:07;38.60;90.70
20125;DHT22;10223;50.862;4.360;2023-09-08T15:32:34;38.10;90.80
20125;DHT22;10223;50.862;4.360;2023-09-08T15:35:01;38.20;91.10